sensor_id;sensor_type;location;lat;lon;timestamp;P1;durP1;ratioP1;P2;durP2;ratioP2
8946;SDS011;4508;48.790;9.028;2022-12-18T00:01:56;53.97;;;45.70;;
8946;SDS011;4508;48.790;9.028;2022-12-18T00:04:24;53.17;;;46.07;;
8946;SDS011;4508;48.790;9.028;2022-12-18T00:06:53;54.55;;;44.65;;
8946;SDS011;4508;48.790;9.028;2022-12-18T00:09:20;54.17;;;45.63;;
8946;SDS011;4508;48.790;9.028;2022-12-18T00:11:47;52.30;;;43.90;;
8946;SDS011;4508;48.790;9.028;2022-12-18T00:14:14;51.67;;;44.53;;
8946;SDS011;4508;48.790;9.028;2022-12-18T00:16:43;53.65;;;44.50;;
8946;SDS011;4508;48.790;9.028;2022-12-18T00:19:10;51.20;;;42.92;;
8946;SDS011;4508;48.790;9.028;2022-12-18T00:21:37;49.95;;;43.05;;
8946;SDS011;4508;48.790;9.028;2022-12-18T00:24:09;49.88;;;42.83;;
8946;SDS011;4508;48.790;9.028;2022-12-18T00:26:37;50.58;;;44.10;;
8946;SDS011;4508;48.790;9.028;2022-12-18T00:29:04;51.10;;;43.03;;
8946;SDS011;4508;48.790;9.028;2022-12-18T00:31:32;51.08;;;44.67;;
8946;SDS011;4508;48.790;9.028;2022-12-18T00:33:59;51.53;;;44.90;;
8946;SDS011;4508;48.790;9.028;2022-12-18T00:36:27;51.42;;;45.33;;
8946;SDS011;4508;48.790;9.028;2022-12-18T00:38:55;53.30;;;46.42;;
8946;SDS011;4508;48.790;9.028;2022-12-18T00:41:24;50.75;;;45.03;;
8946;SDS011;4508;48.790;9.028;2022-12-18T00:44:09;52.00;;;45.28;;
8946;SDS011;4508;48.790;9.028;2022-12-18T00:46:37;49.17;;;43.72;;
8946;SDS011;4508;48.790;9.028;2022-12-18T00:49:04;48.25;;;42.90;;
8946;SDS011;4508;48.790;9.028;2022-12-18T00:51:32;49.07;;;43.57;;
8946;SDS011;4508;48.790;9.028;2022-12-18T00:53:59;49.58;;;43.58;;
8946;SDS011;4508;48.790;9.028;2022-12-18T00:56:27;49.33;;;43.50;;
8946;SDS011;4508;48.790;9.028;2022-12-18T00:58:54;46.88;;;41.78;;
8946;SDS011;4508;48.790;9.028;2022-12-18T01:01:21;47.45;;;42.25;;
8946;SDS011;4508;48.790;9.028;2022-12-18T01:03:48;45.10;;;40.27;;
8946;SDS011;4508;48.790;9.028;2022-12-18T01:06:16;44.30;;;39.15;;
8946;SDS011;4508;48.790;9.028;2022-12-18T01:08:43;47.05;;;42.05;;
8946;SDS011;4508;48.790;9.028;2022-12-18T01:11:11;45.38;;;40.35;;
8946;SDS011;4508;48.790;9.028;2022-12-18T01:13:40;48.47;;;43.17;;
8946;SDS011;4508;48.790;9.028;2022-12-18T01:16:07;45.88;;;40.88;;
8946;SDS011;4508;48.790;9.028;2022-12-18T01:18:34;48.17;;;42.50;;
8946;SDS011;4508;48.790;9.028;2022-12-18T01:21:05;45.78;;;40.78;;
8946;SDS011;4508;48.790;9.028;2022-12-18T01:23:32;46.30;;;41.20;;
8946;SDS011;4508;48.790;9.028;2022-12-18T01:26:03;47.22;;;42.13;;
8946;SDS011;4508;48.790;9.028;2022-12-18T01:28:30;46.33;;;41.17;;
8946;SDS011;4508;48.790;9.028;2022-12-18T01:30:58;45.45;;;40.55;;
8946;SDS011;4508;48.790;9.028;2022-12-18T01:33:35;45.00;;;40.08;;
8946;SDS011;4508;48.790;9.028;2022-12-18T01:36:02;46.75;;;41.40;;
8946;SDS011;4508;48.790;9.028;2022-12-18T01:38:29;42.47;;;37.88;;
8946;SDS011;4508;48.790;9.028;2022-12-18T01:40:56;40.83;;;36.47;;
8946;SDS011;4508;48.790;9.028;2022-12-18T01:46:07;39.03;;;34.80;;
8946;SDS011;4508;48.790;9.028;2022-12-18T01:48:34;38.00;;;33.90;;
8946;SDS011;4508;48.790;9.028;2022-12-18T01:51:01;38.67;;;34.50;;
8946;SDS011;4508;48.790;9.028;2022-12-18T01:53:28;39.67;;;35.20;;
8946;SDS011;4508;48.790;9.028;2022-12-18T01:55:56;43.22;;;38.67;;
8946;SDS011;4508;48.790;9.028;2022-12-18T01:58:24;43.35;;;38.65;;
8946;SDS011;4508;48.790;9.028;2022-12-18T02:00:56;44.05;;;39.30;;
8946;SDS011;4508;48.790;9.028;2022-12-18T02:03:25;41.35;;;36.85;;
8946;SDS011;4508;48.790;9.028;2022-12-18T02:05:54;39.97;;;35.67;;
8946;SDS011;4508;48.790;9.028;2022-12-18T02:08:25;38.58;;;34.40;;
8946;SDS011;4508;48.790;9.028;2022-12-18T02:10:54;39.22;;;35.00;;
8946;SDS011;4508;48.790;9.028;2022-12-18T02:13:25;38.45;;;34.35;;
8946;SDS011;4508;48.790;9.028;2022-12-18T02:15:56;38.17;;;34.17;;
8946;SDS011;4508;48.790;9.028;2022-12-18T02:18:27;38.95;;;34.67;;
8946;SDS011;4508;48.790;9.028;2022-12-18T02:20:58;37.90;;;33.72;;
8946;SDS011;4508;48.790;9.028;2022-12-18T02:23:32;37.55;;;33.55;;
8946;SDS011;4508;48.790;9.028;2022-12-18T02:26:04;38.35;;;34.25;;
8946;SDS011;4508;48.790;9.028;2022-12-18T02:28:34;39.95;;;35.50;;
8946;SDS011;4508;48.790;9.028;2022-12-18T02:31:02;38.97;;;34.80;;
8946;SDS011;4508;48.790;9.028;2022-12-18T02:33:31;36.93;;;32.93;;
8946;SDS011;4508;48.790;9.028;2022-12-18T02:36:00;37.58;;;33.60;;
8946;SDS011;4508;48.790;9.028;2022-12-18T02:38:27;36.35;;;32.50;;
8946;SDS011;4508;48.790;9.028;2022-12-18T02:40:56;37.78;;;33.78;;
8946;SDS011;4508;48.790;9.028;2022-12-18T02:43:24;37.65;;;33.60;;
8946;SDS011;4508;48.790;9.028;2022-12-18T02:45:52;36.73;;;32.73;;
8946;SDS011;4508;48.790;9.028;2022-12-18T02:48:21;38.15;;;34.13;;
8946;SDS011;4508;48.790;9.028;2022-12-18T02:50:51;38.85;;;34.65;;
8946;SDS011;4508;48.790;9.028;2022-12-18T02:53:24;38.08;;;33.97;;
8946;SDS011;4508;48.790;9.028;2022-12-18T02:55:57;37.38;;;33.38;;
8946;SDS011;4508;48.790;9.028;2022-12-18T02:58:28;38.88;;;34.35;;
8946;SDS011;4508;48.790;9.028;2022-12-18T03:00:58;39.47;;;35.28;;
8946;SDS011;4508;48.790;9.028;2022-12-18T03:03:27;37.13;;;33.13;;
8946;SDS011;4508;48.790;9.028;2022-12-18T03:05:57;38.95;;;34.85;;
8946;SDS011;4508;48.790;9.028;2022-12-18T03:08:27;38.03;;;33.92;;
8946;SDS011;4508;48.790;9.028;2022-12-18T03:10:56;36.97;;;32.67;;
8946;SDS011;4508;48.790;9.028;2022-12-18T03:13:26;35.83;;;31.98;;
8946;SDS011;4508;48.790;9.028;2022-12-18T03:15:55;36.00;;;32.20;;
8946;SDS011;4508;48.790;9.028;2022-12-18T03:18:25;35.72;;;31.92;;
8946;SDS011;4508;48.790;9.028;2022-12-18T03:20:53;33.28;;;29.67;;
8946;SDS011;4508;48.790;9.028;2022-12-18T03:23:23;35.95;;;32.10;;
8946;SDS011;4508;48.790;9.028;2022-12-18T03:25:52;35.40;;;31.70;;
8946;SDS011;4508;48.790;9.028;2022-12-18T03:28:21;35.88;;;32.17;;
8946;SDS011;4508;48.790;9.028;2022-12-18T03:30:49;34.95;;;31.33;;
8946;SDS011;4508;48.790;9.028;2022-12-18T03:33:19;35.15;;;31.50;;
8946;SDS011;4508;48.790;9.028;2022-12-18T03:35:48;34.00;;;30.50;;
8946;SDS011;4508;48.790;9.028;2022-12-18T03:38:15;32.72;;;29.23;;
8946;SDS011;4508;48.790;9.028;2022-12-18T03:40:45;31.27;;;27.98;;
8946;SDS011;4508;48.790;9.028;2022-12-18T03:43:16;30.77;;;27.67;;
8946;SDS011;4508;48.790;9.028;2022-12-18T03:45:47;32.25;;;28.95;;
8946;SDS011;4508;48.790;9.028;2022-12-18T03:48:16;30.73;;;27.52;;
8946;SDS011;4508;48.790;9.028;2022-12-18T03:50:46;30.23;;;27.20;;
8946;SDS011;4508;48.790;9.028;2022-12-18T03:53:22;30.00;;;26.83;;
8946;SDS011;4508;48.790;9.028;2022-12-18T03:55:55;30.73;;;27.63;;
8946;SDS011;4508;48.790;9.028;2022-12-18T03:58:24;30.98;;;27.88;;
8946;SDS011;4508;48.790;9.028;2022-12-18T04:00:52;30.10;;;27.10;;
8946;SDS011;4508;48.790;9.028;2022-12-18T04:03:22;31.30;;;28.17;;
8946;SDS011;4508;48.790;9.028;2022-12-18T04:05:51;29.95;;;26.85;;
8946;SDS011;4508;48.790;9.028;2022-12-18T04:08:19;30.38;;;27.30;;
8946;SDS011;4508;48.790;9.028;2022-12-18T04:10:46;29.63;;;26.63;;
8946;SDS011;4508;48.790;9.028;2022-12-18T04:13:21;30.50;;;27.50;;
8946;SDS011;4508;48.790;9.028;2022-12-18T04:15:48;30.13;;;27.13;;
8946;SDS011;4508;48.790;9.028;2022-12-18T04:18:15;30.48;;;27.35;;
8946;SDS011;4508;48.790;9.028;2022-12-18T04:20:42;30.75;;;27.65;;
8946;SDS011;4508;48.790;9.028;2022-12-18T04:23:10;29.93;;;26.93;;
8946;SDS011;4508;48.790;9.028;2022-12-18T04:25:37;30.58;;;27.48;;
8946;SDS011;4508;48.790;9.028;2022-12-18T04:28:04;28.52;;;25.63;;
8946;SDS011;4508;48.790;9.028;2022-12-18T04:30:32;29.50;;;26.50;;
8946;SDS011;4508;48.790;9.028;2022-12-18T04:32:59;29.13;;;26.13;;
8946;SDS011;4508;48.790;9.028;2022-12-18T04:35:26;29.20;;;26.27;;
8946;SDS011;4508;48.790;9.028;2022-12-18T04:37:53;30.08;;;27.08;;
8946;SDS011;4508;48.790;9.028;2022-12-18T04:40:21;28.35;;;25.35;;
8946;SDS011;4508;48.790;9.028;2022-12-18T04:42:48;28.95;;;26.05;;
8946;SDS011;4508;48.790;9.028;2022-12-18T04:45:15;29.05;;;26.00;;
8946;SDS011;4508;48.790;9.028;2022-12-18T04:47:42;29.27;;;26.27;;
8946;SDS011;4508;48.790;9.028;2022-12-18T04:50:09;28.95;;;25.95;;
8946;SDS011;4508;48.790;9.028;2022-12-18T04:52:36;26.60;;;23.25;;
8946;SDS011;4508;48.790;9.028;2022-12-18T04:55:04;26.48;;;23.67;;
8946;SDS011;4508;48.790;9.028;2022-12-18T04:57:32;26.23;;;23.23;;
8946;SDS011;4508;48.790;9.028;2022-12-18T04:59:59;26.33;;;23.40;;
8946;SDS011;4508;48.790;9.028;2022-12-18T05:02:26;25.70;;;22.88;;
8946;SDS011;4508;48.790;9.028;2022-12-18T05:04:53;26.65;;;23.85;;
8946;SDS011;4508;48.790;9.028;2022-12-18T05:07:20;25.17;;;22.48;;
8946;SDS011;4508;48.790;9.028;2022-12-18T05:09:47;25.70;;;23.00;;
8946;SDS011;4508;48.790;9.028;2022-12-18T05:12:14;25.58;;;22.63;;
8946;SDS011;4508;48.790;9.028;2022-12-18T05:14:42;26.80;;;22.52;;
8946;SDS011;4508;48.790;9.028;2022-12-18T05:17:09;25.17;;;22.40;;
8946;SDS011;4508;48.790;9.028;2022-12-18T05:19:40;25.20;;;22.38;;
8946;SDS011;4508;48.790;9.028;2022-12-18T05:22:07;25.35;;;22.33;;
8946;SDS011;4508;48.790;9.028;2022-12-18T05:24:34;25.77;;;22.27;;
8946;SDS011;4508;48.790;9.028;2022-12-18T05:27:01;26.48;;;23.58;;
8946;SDS011;4508;48.790;9.028;2022-12-18T05:29:28;25.80;;;22.90;;
8946;SDS011;4508;48.790;9.028;2022-12-18T05:31:56;26.25;;;23.45;;
8946;SDS011;4508;48.790;9.028;2022-12-18T05:34:23;26.98;;;24.08;;
8946;SDS011;4508;48.790;9.028;2022-12-18T05:36:50;26.80;;;23.90;;
8946;SDS011;4508;48.790;9.028;2022-12-18T05:39:17;26.58;;;23.55;;
8946;SDS011;4508;48.790;9.028;2022-12-18T05:41:44;25.75;;;22.17;;
8946;SDS011;4508;48.790;9.028;2022-12-18T05:44:11;26.35;;;22.65;;
8946;SDS011;4508;48.790;9.028;2022-12-18T05:46:41;26.33;;;22.65;;
8946;SDS011;4508;48.790;9.028;2022-12-18T05:49:10;26.42;;;23.60;;
8946;SDS011;4508;48.790;9.028;2022-12-18T05:51:37;27.75;;;23.77;;
8946;SDS011;4508;48.790;9.028;2022-12-18T05:54:04;28.08;;;24.15;;
8946;SDS011;4508;48.790;9.028;2022-12-18T05:56:31;27.83;;;24.08;;
8946;SDS011;4508;48.790;9.028;2022-12-18T05:58:58;27.77;;;23.85;;
8946;SDS011;4508;48.790;9.028;2022-12-18T06:01:25;28.65;;;24.52;;
8946;SDS011;4508;48.790;9.028;2022-12-18T06:03:52;28.00;;;23.70;;
8946;SDS011;4508;48.790;9.028;2022-12-18T06:06:21;28.75;;;24.70;;
8946;SDS011;4508;48.790;9.028;2022-12-18T06:08:49;28.27;;;23.95;;
8946;SDS011;4508;48.790;9.028;2022-12-18T06:11:17;26.42;;;23.38;;
8946;SDS011;4508;48.790;9.028;2022-12-18T06:13:44;28.42;;;25.25;;
8946;SDS011;4508;48.790;9.028;2022-12-18T06:16:11;28.17;;;24.37;;
8946;SDS011;4508;48.790;9.028;2022-12-18T06:18:38;27.23;;;23.70;;
8946;SDS011;4508;48.790;9.028;2022-12-18T06:21:05;25.90;;;22.75;;
8946;SDS011;4508;48.790;9.028;2022-12-18T06:23:34;27.23;;;24.33;;
8946;SDS011;4508;48.790;9.028;2022-12-18T06:26:03;26.15;;;22.75;;
8946;SDS011;4508;48.790;9.028;2022-12-18T06:28:30;26.07;;;23.27;;
8946;SDS011;4508;48.790;9.028;2022-12-18T06:30:57;25.27;;;22.17;;
8946;SDS011;4508;48.790;9.028;2022-12-18T06:33:25;26.50;;;23.70;;
8946;SDS011;4508;48.790;9.028;2022-12-18T06:35:52;25.70;;;22.55;;
8946;SDS011;4508;48.790;9.028;2022-12-18T06:38:20;26.60;;;23.35;;
8946;SDS011;4508;48.790;9.028;2022-12-18T06:40:48;27.15;;;22.70;;
8946;SDS011;4508;48.790;9.028;2022-12-18T06:43:15;26.30;;;22.83;;
8946;SDS011;4508;48.790;9.028;2022-12-18T06:45:42;25.50;;;22.47;;
8946;SDS011;4508;48.790;9.028;2022-12-18T06:48:09;25.92;;;22.00;;
8946;SDS011;4508;48.790;9.028;2022-12-18T06:50:36;26.57;;;22.83;;
8946;SDS011;4508;48.790;9.028;2022-12-18T06:53:03;25.65;;;22.42;;
8946;SDS011;4508;48.790;9.028;2022-12-18T06:55:30;26.55;;;22.77;;
8946;SDS011;4508;48.790;9.028;2022-12-18T06:57:58;27.45;;;23.10;;
8946;SDS011;4508;48.790;9.028;2022-12-18T07:00:25;25.30;;;22.40;;
8946;SDS011;4508;48.790;9.028;2022-12-18T07:02:52;26.35;;;22.58;;
8946;SDS011;4508;48.790;9.028;2022-12-18T07:05:19;24.60;;;21.48;;
8946;SDS011;4508;48.790;9.028;2022-12-18T07:07:46;25.80;;;22.90;;
8946;SDS011;4508;48.790;9.028;2022-12-18T07:10:13;26.60;;;23.63;;
8946;SDS011;4508;48.790;9.028;2022-12-18T07:12:40;26.48;;;23.05;;
8946;SDS011;4508;48.790;9.028;2022-12-18T07:15:09;27.40;;;24.07;;
8946;SDS011;4508;48.790;9.028;2022-12-18T07:17:36;27.40;;;23.85;;
8946;SDS011;4508;48.790;9.028;2022-12-18T07:20:03;26.98;;;23.48;;
8946;SDS011;4508;48.790;9.028;2022-12-18T07:22:31;26.88;;;22.50;;
8946;SDS011;4508;48.790;9.028;2022-12-18T07:24:58;27.47;;;23.10;;
8946;SDS011;4508;48.790;9.028;2022-12-18T07:27:25;25.73;;;22.40;;
8946;SDS011;4508;48.790;9.028;2022-12-18T07:29:52;26.13;;;22.08;;
8946;SDS011;4508;48.790;9.028;2022-12-18T07:32:21;24.67;;;21.67;;
8946;SDS011;4508;48.790;9.028;2022-12-18T07:34:48;26.83;;;23.15;;
8946;SDS011;4508;48.790;9.028;2022-12-18T07:37:15;27.30;;;23.15;;
8946;SDS011;4508;48.790;9.028;2022-12-18T07:39:42;28.10;;;23.27;;
8946;SDS011;4508;48.790;9.028;2022-12-18T07:42:09;26.90;;;22.63;;
8946;SDS011;4508;48.790;9.028;2022-12-18T07:44:59;26.13;;;22.73;;
8946;SDS011;4508;48.790;9.028;2022-12-18T07:47:27;26.00;;;21.55;;
8946;SDS011;4508;48.790;9.028;2022-12-18T07:49:55;25.73;;;22.30;;
8946;SDS011;4508;48.790;9.028;2022-12-18T07:52:22;25.60;;;21.50;;
8946;SDS011;4508;48.790;9.028;2022-12-18T07:54:49;28.00;;;22.77;;
8946;SDS011;4508;48.790;9.028;2022-12-18T07:57:16;25.67;;;22.70;;
8946;SDS011;4508;48.790;9.028;2022-12-18T07:59:43;24.77;;;21.03;;
8946;SDS011;4508;48.790;9.028;2022-12-18T08:02:10;24.58;;;21.33;;
8946;SDS011;4508;48.790;9.028;2022-12-18T08:04:38;24.88;;;21.17;;
8946;SDS011;4508;48.790;9.028;2022-12-18T08:07:05;26.45;;;22.38;;
8946;SDS011;4508;48.790;9.028;2022-12-18T08:09:32;25.77;;;22.87;;
8946;SDS011;4508;48.790;9.028;2022-12-18T08:11:59;25.33;;;21.20;;
8946;SDS011;4508;48.790;9.028;2022-12-18T08:14:26;25.77;;;22.43;;
8946;SDS011;4508;48.790;9.028;2022-12-18T08:16:54;24.45;;;21.20;;
8946;SDS011;4508;48.790;9.028;2022-12-18T08:19:21;25.35;;;22.15;;
8946;SDS011;4508;48.790;9.028;2022-12-18T08:21:49;24.90;;;21.60;;
8946;SDS011;4508;48.790;9.028;2022-12-18T08:24:16;26.00;;;22.65;;
8946;SDS011;4508;48.790;9.028;2022-12-18T08:26:43;26.25;;;22.90;;
8946;SDS011;4508;48.790;9.028;2022-12-18T08:29:10;25.23;;;21.85;;
8946;SDS011;4508;48.790;9.028;2022-12-18T08:34:04;24.90;;;21.65;;
8946;SDS011;4508;48.790;9.028;2022-12-18T08:36:31;26.30;;;23.40;;
8946;SDS011;4508;48.790;9.028;2022-12-18T08:38:59;24.98;;;22.27;;
8946;SDS011;4508;48.790;9.028;2022-12-18T08:41:26;23.85;;;21.20;;
8946;SDS011;4508;48.790;9.028;2022-12-18T08:43:53;23.42;;;20.92;;
8946;SDS011;4508;48.790;9.028;2022-12-18T08:46:39;23.80;;;21.30;;
8946;SDS011;4508;48.790;9.028;2022-12-18T08:49:07;22.02;;;19.63;;
8946;SDS011;4508;48.790;9.028;2022-12-18T08:51:34;23.50;;;21.00;;
8946;SDS011;4508;48.790;9.028;2022-12-18T08:54:04;22.15;;;19.80;;
8946;SDS011;4508;48.790;9.028;2022-12-18T08:56:31;22.17;;;19.77;;
8946;SDS011;4508;48.790;9.028;2022-12-18T08:58:59;22.05;;;19.65;;
8946;SDS011;4508;48.790;9.028;2022-12-18T09:01:26;21.93;;;19.63;;
8946;SDS011;4508;48.790;9.028;2022-12-18T09:03:53;21.63;;;18.67;;
8946;SDS011;4508;48.790;9.028;2022-12-18T09:06:20;21.67;;;19.40;;
8946;SDS011;4508;48.790;9.028;2022-12-18T09:08:48;21.57;;;19.27;;
8946;SDS011;4508;48.790;9.028;2022-12-18T09:11:18;21.65;;;19.45;;
8946;SDS011;4508;48.790;9.028;2022-12-18T09:13:46;20.77;;;18.67;;
8946;SDS011;4508;48.790;9.028;2022-12-18T09:16:13;21.10;;;18.95;;
8946;SDS011;4508;48.790;9.028;2022-12-18T09:18:40;21.47;;;19.27;;
8946;SDS011;4508;48.790;9.028;2022-12-18T09:21:08;21.55;;;19.40;;
8946;SDS011;4508;48.790;9.028;2022-12-18T09:23:35;20.92;;;18.77;;
8946;SDS011;4508;48.790;9.028;2022-12-18T09:26:02;20.98;;;18.77;;
8946;SDS011;4508;48.790;9.028;2022-12-18T09:28:30;21.10;;;18.98;;
8946;SDS011;4508;48.790;9.028;2022-12-18T09:30:57;20.45;;;18.35;;
8946;SDS011;4508;48.790;9.028;2022-12-18T09:33:24;20.90;;;18.80;;
8946;SDS011;4508;48.790;9.028;2022-12-18T09:35:51;21.43;;;19.23;;
8946;SDS011;4508;48.790;9.028;2022-12-18T09:38:18;20.55;;;18.45;;
8946;SDS011;4508;48.790;9.028;2022-12-18T09:40:46;20.88;;;18.77;;
8946;SDS011;4508;48.790;9.028;2022-12-18T09:43:16;20.20;;;18.20;;
8946;SDS011;4508;48.790;9.028;2022-12-18T09:45:46;21.55;;;19.25;;
8946;SDS011;4508;48.790;9.028;2022-12-18T09:48:15;21.30;;;19.13;;
8946;SDS011;4508;48.790;9.028;2022-12-18T09:50:44;21.05;;;18.90;;
8946;SDS011;4508;48.790;9.028;2022-12-18T09:53:12;20.98;;;18.88;;
8946;SDS011;4508;48.790;9.028;2022-12-18T09:55:41;21.05;;;18.95;;
8946;SDS011;4508;48.790;9.028;2022-12-18T09:58:12;20.70;;;18.60;;
8946;SDS011;4508;48.790;9.028;2022-12-18T10:00:40;21.10;;;18.88;;
8946;SDS011;4508;48.790;9.028;2022-12-18T10:03:10;21.75;;;19.52;;
8946;SDS011;4508;48.790;9.028;2022-12-18T10:05:40;21.30;;;19.10;;
8946;SDS011;4508;48.790;9.028;2022-12-18T10:08:10;21.23;;;19.07;;
8946;SDS011;4508;48.790;9.028;2022-12-18T10:10:41;20.52;;;18.42;;
8946;SDS011;4508;48.790;9.028;2022-12-18T10:13:14;21.42;;;19.23;;
8946;SDS011;4508;48.790;9.028;2022-12-18T10:15:46;21.20;;;19.10;;
8946;SDS011;4508;48.790;9.028;2022-12-18T10:18:19;21.10;;;18.90;;
8946;SDS011;4508;48.790;9.028;2022-12-18T10:20:49;21.23;;;18.95;;
8946;SDS011;4508;48.790;9.028;2022-12-18T10:23:18;20.85;;;18.75;;
8946;SDS011;4508;48.790;9.028;2022-12-18T10:25:51;20.35;;;18.25;;
8946;SDS011;4508;48.790;9.028;2022-12-18T10:28:20;20.73;;;18.58;;
8946;SDS011;4508;48.790;9.028;2022-12-18T10:30:49;21.33;;;19.13;;
8946;SDS011;4508;48.790;9.028;2022-12-18T10:33:18;21.23;;;19.02;;
8946;SDS011;4508;48.790;9.028;2022-12-18T10:35:45;21.13;;;18.92;;
8946;SDS011;4508;48.790;9.028;2022-12-18T10:38:21;21.27;;;19.17;;
8946;SDS011;4508;48.790;9.028;2022-12-18T10:40:50;21.63;;;19.43;;
8946;SDS011;4508;48.790;9.028;2022-12-18T10:43:20;21.42;;;19.30;;
8946;SDS011;4508;48.790;9.028;2022-12-18T10:48:32;21.38;;;19.25;;
8946;SDS011;4508;48.790;9.028;2022-12-18T10:51:00;21.50;;;19.30;;
8946;SDS011;4508;48.790;9.028;2022-12-18T10:53:28;20.40;;;18.40;;
8946;SDS011;4508;48.790;9.028;2022-12-18T10:55:56;21.45;;;19.25;;
8946;SDS011;4508;48.790;9.028;2022-12-18T10:58:25;20.33;;;18.33;;
8946;SDS011;4508;48.790;9.028;2022-12-18T11:01:04;20.58;;;18.48;;
8946;SDS011;4508;48.790;9.028;2022-12-18T11:03:33;20.15;;;18.10;;
8946;SDS011;4508;48.790;9.028;2022-12-18T11:06:02;20.83;;;18.73;;
8946;SDS011;4508;48.790;9.028;2022-12-18T11:08:30;20.98;;;18.80;;
8946;SDS011;4508;48.790;9.028;2022-12-18T11:10:57;20.52;;;18.42;;
8946;SDS011;4508;48.790;9.028;2022-12-18T11:13:24;21.02;;;18.90;;
8946;SDS011;4508;48.790;9.028;2022-12-18T11:15:52;20.42;;;18.33;;
8946;SDS011;4508;48.790;9.028;2022-12-18T11:18:22;20.42;;;18.33;;
8946;SDS011;4508;48.790;9.028;2022-12-18T11:20:53;21.33;;;19.15;;
8946;SDS011;4508;48.790;9.028;2022-12-18T11:23:23;20.80;;;18.67;;
8946;SDS011;4508;48.790;9.028;2022-12-18T11:25:51;20.35;;;18.25;;
8946;SDS011;4508;48.790;9.028;2022-12-18T11:28:26;20.65;;;18.45;;
8946;SDS011;4508;48.790;9.028;2022-12-18T11:31:08;20.90;;;18.70;;
8946;SDS011;4508;48.790;9.028;2022-12-18T11:33:36;20.08;;;17.98;;
8946;SDS011;4508;48.790;9.028;2022-12-18T11:36:04;20.85;;;18.65;;
8946;SDS011;4508;48.790;9.028;2022-12-18T11:38:37;20.35;;;18.25;;
8946;SDS011;4508;48.790;9.028;2022-12-18T11:41:06;20.23;;;18.13;;
8946;SDS011;4508;48.790;9.028;2022-12-18T11:43:38;20.45;;;18.35;;
8946;SDS011;4508;48.790;9.028;2022-12-18T11:46:08;19.77;;;17.77;;
8946;SDS011;4508;48.790;9.028;2022-12-18T11:48:37;20.55;;;18.45;;
8946;SDS011;4508;48.790;9.028;2022-12-18T11:51:09;20.38;;;18.33;;
8946;SDS011;4508;48.790;9.028;2022-12-18T11:53:39;20.15;;;18.05;;
8946;SDS011;4508;48.790;9.028;2022-12-18T11:56:12;20.45;;;18.35;;
8946;SDS011;4508;48.790;9.028;2022-12-18T11:58:44;19.98;;;17.92;;
8946;SDS011;4508;48.790;9.028;2022-12-18T12:01:16;20.30;;;18.20;;
8946;SDS011;4508;48.790;9.028;2022-12-18T12:03:58;20.08;;;17.98;;
8946;SDS011;4508;48.790;9.028;2022-12-18T12:06:28;20.77;;;18.67;;
8946;SDS011;4508;48.790;9.028;2022-12-18T12:09:03;20.52;;;18.40;;
8946;SDS011;4508;48.790;9.028;2022-12-18T12:11:35;20.65;;;18.52;;
8946;SDS011;4508;48.790;9.028;2022-12-18T12:14:16;20.80;;;18.63;;
8946;SDS011;4508;48.790;9.028;2022-12-18T12:16:45;20.93;;;18.80;;
8946;SDS011;4508;48.790;9.028;2022-12-18T12:19:18;20.65;;;18.55;;
8946;SDS011;4508;48.790;9.028;2022-12-18T12:21:51;21.50;;;19.20;;
8946;SDS011;4508;48.790;9.028;2022-12-18T12:24:24;20.83;;;18.63;;
8946;SDS011;4508;48.790;9.028;2022-12-18T12:26:55;21.30;;;19.10;;
8946;SDS011;4508;48.790;9.028;2022-12-18T12:29:28;21.15;;;18.95;;
8946;SDS011;4508;48.790;9.028;2022-12-18T12:31:59;21.48;;;19.17;;
8946;SDS011;4508;48.790;9.028;2022-12-18T12:34:30;21.23;;;19.02;;
8946;SDS011;4508;48.790;9.028;2022-12-18T12:37:07;21.20;;;18.98;;
8946;SDS011;4508;48.790;9.028;2022-12-18T12:39:40;22.10;;;19.80;;
8946;SDS011;4508;48.790;9.028;2022-12-18T12:42:11;22.33;;;20.02;;
8946;SDS011;4508;48.790;9.028;2022-12-18T12:44:57;22.20;;;19.90;;
8946;SDS011;4508;48.790;9.028;2022-12-18T12:47:25;21.90;;;19.65;;
8946;SDS011;4508;48.790;9.028;2022-12-18T12:49:53;22.13;;;19.83;;
8946;SDS011;4508;48.790;9.028;2022-12-18T12:52:24;21.65;;;19.45;;
8946;SDS011;4508;48.790;9.028;2022-12-18T12:54:55;22.67;;;20.33;;
8946;SDS011;4508;48.790;9.028;2022-12-18T12:57:24;22.02;;;19.83;;
8946;SDS011;4508;48.790;9.028;2022-12-18T12:59:56;23.13;;;20.65;;
8946;SDS011;4508;48.790;9.028;2022-12-18T13:02:27;22.30;;;19.92;;
8946;SDS011;4508;48.790;9.028;2022-12-18T13:04:56;23.08;;;20.58;;
8946;SDS011;4508;48.790;9.028;2022-12-18T13:07:26;22.17;;;19.83;;
8946;SDS011;4508;48.790;9.028;2022-12-18T13:10:22;22.70;;;20.30;;
8946;SDS011;4508;48.790;9.028;2022-12-18T13:12:53;23.23;;;20.83;;
8946;SDS011;4508;48.790;9.028;2022-12-18T13:15:23;22.05;;;19.70;;
8946;SDS011;4508;48.790;9.028;2022-12-18T13:18:02;22.85;;;20.55;;
8946;SDS011;4508;48.790;9.028;2022-12-18T13:20:32;23.30;;;20.80;;
8946;SDS011;4508;48.790;9.028;2022-12-18T13:23:00;23.80;;;21.30;;
8946;SDS011;4508;48.790;9.028;2022-12-18T13:25:32;24.55;;;21.48;;
8946;SDS011;4508;48.790;9.028;2022-12-18T13:28:01;23.60;;;20.80;;
8946;SDS011;4508;48.790;9.028;2022-12-18T13:30:42;23.08;;;20.63;;
8946;SDS011;4508;48.790;9.028;2022-12-18T13:36:00;23.38;;;20.88;;
8946;SDS011;4508;48.790;9.028;2022-12-18T13:38:32;24.30;;;21.60;;
8946;SDS011;4508;48.790;9.028;2022-12-18T13:41:01;24.63;;;22.00;;
8946;SDS011;4508;48.790;9.028;2022-12-18T13:43:36;25.42;;;22.70;;
8946;SDS011;4508;48.790;9.028;2022-12-18T13:46:17;24.10;;;21.58;;
8946;SDS011;4508;48.790;9.028;2022-12-18T13:48:49;25.35;;;22.65;;
8946;SDS011;4508;48.790;9.028;2022-12-18T13:51:17;24.63;;;22.00;;
8946;SDS011;4508;48.790;9.028;2022-12-18T13:53:46;24.73;;;22.08;;
8946;SDS011;4508;48.790;9.028;2022-12-18T13:56:16;25.13;;;22.13;;
8946;SDS011;4508;48.790;9.028;2022-12-18T13:58:43;27.23;;;22.90;;
8946;SDS011;4508;48.790;9.028;2022-12-18T14:01:21;25.48;;;22.77;;
8946;SDS011;4508;48.790;9.028;2022-12-18T14:03:48;25.45;;;22.63;;
8946;SDS011;4508;48.790;9.028;2022-12-18T14:06:15;27.05;;;24.20;;
8946;SDS011;4508;48.790;9.028;2022-12-18T14:08:43;26.55;;;23.20;;
8946;SDS011;4508;48.790;9.028;2022-12-18T14:11:18;26.48;;;23.45;;
8946;SDS011;4508;48.790;9.028;2022-12-18T14:13:48;26.23;;;23.30;;
8946;SDS011;4508;48.790;9.028;2022-12-18T14:16:15;26.95;;;24.10;;
8946;SDS011;4508;48.790;9.028;2022-12-18T14:18:44;27.50;;;24.30;;
8946;SDS011;4508;48.790;9.028;2022-12-18T14:21:19;27.23;;;24.10;;
8946;SDS011;4508;48.790;9.028;2022-12-18T14:23:47;28.23;;;24.90;;
8946;SDS011;4508;48.790;9.028;2022-12-18T14:26:22;28.05;;;24.73;;
8946;SDS011;4508;48.790;9.028;2022-12-18T14:28:50;28.75;;;25.38;;
8946;SDS011;4508;48.790;9.028;2022-12-18T14:31:19;31.02;;;26.63;;
8946;SDS011;4508;48.790;9.028;2022-12-18T14:33:46;29.55;;;25.85;;
8946;SDS011;4508;48.790;9.028;2022-12-18T14:36:14;29.48;;;25.38;;
8946;SDS011;4508;48.790;9.028;2022-12-18T14:38:42;30.58;;;26.75;;
8946;SDS011;4508;48.790;9.028;2022-12-18T14:41:10;30.38;;;27.08;;
8946;SDS011;4508;48.790;9.028;2022-12-18T14:43:38;31.73;;;26.02;;
8946;SDS011;4508;48.790;9.028;2022-12-18T14:46:24;29.67;;;24.50;;
8946;SDS011;4508;48.790;9.028;2022-12-18T14:48:52;29.95;;;24.27;;
8946;SDS011;4508;48.790;9.028;2022-12-18T14:51:20;31.40;;;24.70;;
8946;SDS011;4508;48.790;9.028;2022-12-18T14:53:48;28.40;;;23.65;;
8946;SDS011;4508;48.790;9.028;2022-12-18T14:56:17;29.60;;;24.83;;
8946;SDS011;4508;48.790;9.028;2022-12-18T14:58:45;29.58;;;24.70;;
8946;SDS011;4508;48.790;9.028;2022-12-18T15:01:19;30.88;;;25.20;;
8946;SDS011;4508;48.790;9.028;2022-12-18T15:03:46;28.63;;;23.65;;
8946;SDS011;4508;48.790;9.028;2022-12-18T15:06:16;28.37;;;24.10;;
8946;SDS011;4508;48.790;9.028;2022-12-18T15:08:44;27.58;;;23.02;;
8946;SDS011;4508;48.790;9.028;2022-12-18T15:14:24;28.52;;;23.70;;